Time;durP1;ratioP1;P1;durP2;ratioP2;P2;SDS_P1;SDS_P2;PMS_P1;PMS_P2;Temp;Humidity;BMP_temperature;BMP_pressure;BME280_temperature;BME280_humidity;BME280_pressure;Samples;Min_cycle;Max_cycle;Signal;HPM_P1;HPM_P2
2022/05/01 00:00:46;;;;;;;5.78;3.75;;;;;;;12.88;43.17;100630.97;4952680;29;20059;-60
2022/05/01 00:03:35;;;;;;;7.47;3.55;;;;;;;12.85;43.40;100631.97;4953210;28;20114;-60
2022/05/01 00:06:03;;;;;;;5.35;4.15;;;;;;;12.81;43.51;100625.16;4954209;28;20051;-60
2022/05/01 00:08:31;;;;;;;7.05;3.78;;;;;;;12.80;43.35;100628.72;4954250;28;20385;-62
2022/05/01 00:10:58;;;;;;;5.35;3.80;;;;;;;12.78;43.46;100625.28;4952622;29;20808;-62
2022/05/01 00:13:40;;;;;;;6.95;3.92;;;;;;;12.74;43.52;100629.03;4953900;28;20056;-60
2022/05/01 00:16:08;;;;;;;7.05;4.28;;;;;;;12.72;43.51;100618.56;4953994;28;20047;-60
2022/05/01 00:18:35;;;;;;;5.38;4.10;;;;;;;12.72;43.56;100620.34;4953939;28;20063;-61
2022/05/01 00:21:02;;;;;;;5.97;3.85;;;;;;;12.69;43.62;100620.50;4953510;29;20047;-60
2022/05/01 00:23:28;;;;;;;6.13;4.05;;;;;;;12.67;43.81;100623.22;4953991;28;20059;-60
2022/05/01 00:25:55;;;;;;;6.60;3.60;;;;;;;12.64;43.86;100629.50;4953631;28;20055;-60
2022/05/01 00:28:22;;;;;;;5.05;3.38;;;;;;;12.63;44.02;100621.66;4953619;28;20106;-60
2022/05/01 00:30:48;;;;;;;5.82;4.03;;;;;;;12.62;43.93;100620.81;4953312;28;20122;-60
2022/05/01 00:38:45;;;;;;;5.03;3.70;;;;;;;12.62;43.94;100626.13;4953605;28;20055;-60
2022/05/01 00:41:12;;;;;;;12.32;5.25;;;;;;;12.62;44.16;100628.75;4953106;28;20408;-61
2022/05/01 00:44:00;;;;;;;4.80;4.30;;;;;;;12.56;44.52;100626.41;4953471;28;20106;-60
2022/05/01 00:46:28;;;;;;;6.95;4.53;;;;;;;12.59;43.97;100612.19;4953720;28;20059;-61
2022/05/01 00:48:55;;;;;;;6.53;4.28;;;;;;;12.56;44.15;100615.84;4953553;28;20063;-60
2022/05/01 00:51:22;;;;;;;6.70;4.38;;;;;;;12.54;44.31;100612.44;4953062;28;20051;-61
2022/05/01 00:53:49;;;;;;;5.32;4.43;;;;;;;12.51;44.44;100613.47;4953735;28;20063;-60
2022/05/01 00:56:17;;;;;;;4.70;4.15;;;;;;;12.49;44.67;100610.03;4952350;29;20117;-60
2022/05/01 00:58:46;;;;;;;5.70;4.00;;;;;;;12.48;44.81;100607.47;4952379;29;20170;-60
2022/05/01 01:01:14;;;;;;;6.35;4.45;;;;;;;12.48;44.51;100610.09;4953098;28;20058;-60
2022/05/01 01:03:41;;;;;;;7.05;4.57;;;;;;;12.47;44.66;100608.41;4953332;28;20062;-61
2022/05/01 01:06:07;;;;;;;10.90;4.32;;;;;;;12.46;44.74;100614.63;4953110;28;20058;-61
2022/05/01 01:08:34;;;;;;;6.72;4.32;;;;;;;12.45;44.73;100623.47;4953415;28;20484;-60
2022/05/01 01:11:00;;;;;;;8.02;4.25;;;;;;;12.41;44.70;100620.13;4952960;28;20118;-60
2022/05/01 01:13:28;;;;;;;7.07;4.38;;;;;;;12.40;44.92;100622.88;4952877;28;20062;-60
2022/05/01 01:15:56;;;;;;;6.25;4.63;;;;;;;12.39;45.03;100616.72;4953135;28;20054;-60
2022/05/01 01:18:24;;;;;;;4.95;4.05;;;;;;;12.37;44.95;100626.50;4953053;29;20574;-60
2022/05/01 01:20:52;;;;;;;6.82;4.38;;;;;;;12.36;45.19;100633.59;4951710;29;20459;-60
2022/05/01 01:23:19;;;;;;;4.82;4.38;;;;;;;12.35;45.24;100629.25;4951834;29;20062;-60
2022/05/01 01:25:47;;;;;;;6.22;4.82;;;;;;;12.34;45.42;100630.16;4951618;29;20459;-61
2022/05/01 01:28:14;;;;;;;6.68;5.10;;;;;;;12.32;45.41;100624.09;4951709;29;20063;-61
2022/05/01 01:33:29;;;;;;;8.35;4.72;;;;;;;12.30;45.67;100625.94;4952730;29;20468;-60
2022/05/01 01:36:02;;;;;;;8.15;5.35;;;;;;;12.27;46.33;100626.13;4952680;29;20703;-59
2022/05/01 01:38:29;;;;;;;8.15;5.07;;;;;;;12.28;45.78;100629.59;4951763;29;20051;-59
2022/05/01 01:40:59;;;;;;;7.95;5.22;;;;;;;12.25;46.37;100628.84;4951295;29;20654;-59
2022/05/01 01:43:27;;;;;;;6.32;4.97;;;;;;;12.25;45.97;100627.97;4952449;28;20051;-59
2022/05/01 01:45:55;;;;;;;7.82;4.47;;;;;;;12.25;45.89;100627.97;4952687;28;20055;-60
2022/05/01 01:48:23;;;;;;;8.32;5.15;;;;;;;12.24;46.32;100627.13;4951434;29;20059;-58
2022/05/01 01:51:05;;;;;;;9.90;5.38;;;;;;;12.22;46.89;100630.75;4952036;28;20555;-60
2022/05/01 01:53:35;;;;;;;5.60;4.50;;;;;;;12.24;46.18;100634.19;4951202;29;20050;-57
2022/05/01 01:56:03;;;;;;;8.65;4.50;;;;;;;12.23;45.76;100632.50;4950843;29;20058;-56
2022/05/01 01:58:30;;;;;;;8.13;4.63;;;;;;;12.21;46.04;100623.78;4951347;29;20059;-59
2022/05/01 02:00:59;;;;;;;6.85;5.07;;;;;;;12.17;46.17;100616.94;4950744;29;20059;-57
2022/05/01 02:03:27;;;;;;;7.45;5.38;;;;;;;12.15;46.30;100616.19;4950998;29;20047;-59
2022/05/01 02:05:54;;;;;;;6.97;5.20;;;;;;;12.11;46.49;100626.00;4951316;29;20055;-61
2022/05/01 02:08:20;;;;;;;6.72;5.25;;;;;;;12.08;46.59;100615.63;4952403;28;20047;-59
2022/05/01 02:10:47;;;;;;;6.60;4.68;;;;;;;12.05;46.54;100619.28;4952002;28;20058;-58
2022/05/01 02:13:14;;;;;;;11.77;5.05;;;;;;;12.04;46.74;100621.97;4952118;28;20051;-55
2022/05/01 02:15:42;;;;;;;7.13;4.88;;;;;;;12.01;46.79;100619.47;4952247;28;20074;-61
2022/05/01 02:18:08;;;;;;;8.90;4.75;;;;;;;11.97;46.78;100618.75;4952203;28;20059;-58
2022/05/01 02:23:23;;;;;;;4.40;3.88;;;;;;;11.93;46.98;100617.19;4951965;28;20055;-61
2022/05/01 02:25:50;;;;;;;9.00;6.03;;;;;;;11.91;47.05;100619.03;4952525;28;20051;-61
2022/05/01 02:28:23;;;;;;;10.05;5.47;;;;;;;11.89;47.08;100611.19;4955750;28;20074;-60
2022/05/01 02:30:51;;;;;;;8.30;5.93;;;;;;;11.88;47.17;100614.78;4955743;28;20043;-60
2022/05/01 02:33:20;;;;;;;6.55;4.88;;;;;;;11.85;46.84;100615.78;4954540;29;20058;-60
2022/05/01 02:35:48;;;;;;;5.70;4.78;;;;;;;11.83;46.91;100609.75;4954186;29;20491;-61
2022/05/01 02:38:14;;;;;;;6.50;4.38;;;;;;;11.80;47.05;100612.53;4955733;28;20496;-58
2022/05/01 02:40:42;;;;;;;6.38;4.50;;;;;;;11.78;47.25;100616.16;4955450;28;20543;-59
2022/05/01 02:43:09;;;;;;;8.15;4.50;;;;;;;11.75;47.18;100617.16;4954549;29;20138;-57
2022/05/01 02:45:36;;;;;;;5.95;4.47;;;;;;;11.71;47.24;100612.97;4955545;28;20067;-59
2022/05/01 02:48:03;;;;;;;9.63;4.93;;;;;;;11.69;47.30;100612.16;4955372;28;20141;-53
2022/05/01 02:50:30;;;;;;;5.28;4.43;;;;;;;11.68;47.33;100618.38;4955405;28;20062;-56
2022/05/01 02:52:57;;;;;;;5.47;4.72;;;;;;;11.64;47.18;100616.81;4955642;28;20055;-60
2022/05/01 02:55:23;;;;;;;13.27;5.38;;;;;;;11.60;47.32;100613.47;4955481;28;20510;-58
2022/05/01 02:57:50;;;;;;;15.80;5.55;;;;;;;11.58;47.69;100612.69;4955435;28;20047;-61
2022/05/01 03:00:17;;;;;;;10.70;5.75;;;;;;;11.56;48.03;100617.19;4955256;29;20051;-60
2022/05/01 03:02:48;;;;;;;8.30;5.53;;;;;;;11.52;48.53;100607.72;4955241;28;20047;-55
2022/05/01 03:05:16;;;;;;;8.95;5.13;;;;;;;11.51;48.03;100606.84;4955900;28;20073;-54
2022/05/01 03:07:43;;;;;;;6.45;5.03;;;;;;;11.51;47.96;100608.66;4954239;29;20058;-60
2022/05/01 03:10:10;;;;;;;9.52;5.35;;;;;;;11.50;47.97;100605.16;4955235;28;20055;-60
2022/05/01 03:12:37;;;;;;;11.48;5.47;;;;;;;11.47;47.90;100606.16;4954130;29;20408;-60
2022/05/01 03:15:06;;;;;;;6.35;4.43;;;;;;;11.43;48.20;100598.44;4953816;29;20053;-61
2022/05/01 03:23:04;;;;;;;6.38;4.70;;;;;;;11.33;48.16;100592.78;4955017;28;20121;-60
2022/05/01 03:25:30;;;;;;;8.90;4.70;;;;;;;11.30;48.04;100598.19;4954920;28;20649;-62
2022/05/01 03:27:57;;;;;;;10.30;5.13;;;;;;;11.27;48.01;100598.31;4954832;28;20059;-61
2022/05/01 03:30:24;;;;;;;5.95;5.07;;;;;;;11.24;48.08;100595.81;4953677;29;20062;-59
2022/05/01 03:32:51;;;;;;;8.07;5.30;;;;;;;11.21;48.19;100599.44;4955012;28;20047;-57
2022/05/01 03:35:18;;;;;;;7.88;5.28;;;;;;;11.18;48.43;100600.44;4953437;29;20058;-57
2022/05/01 03:37:45;;;;;;;7.10;5.00;;;;;;;11.16;48.46;100602.31;4954556;28;20055;-60
2022/05/01 03:40:15;;;;;;;6.25;4.43;;;;;;;11.16;48.73;100604.06;4954257;28;20495;-56
2022/05/01 03:42:43;;;;;;;14.65;6.50;;;;;;;11.15;48.97;100605.88;4954794;28;20059;-59
2022/05/01 03:45:10;;;;;;;9.30;7.30;;;;;;;11.15;48.92;100602.38;4954501;28;20055;-60
2022/05/01 03:47:37;;;;;;;9.20;6.97;;;;;;;11.15;49.29;100602.38;4953456;29;20048;-58
2022/05/01 03:50:05;;;;;;;9.63;6.45;;;;;;;11.14;49.31;100609.41;4954062;28;20050;-59
2022/05/01 03:52:33;;;;;;;11.88;7.75;;;;;;;11.14;49.50;100596.25;4952926;29;20059;-60
2022/05/01 03:55:00;;;;;;;28.92;8.52;;;;;;;11.15;49.40;100602.38;4952933;29;20054;-61
2022/05/01 03:57:33;;;;;;;13.35;7.07;;;;;;;11.14;49.44;100598.88;4954587;28;20055;-58
2022/05/01 04:00:00;;;;;;;10.70;7.80;;;;;;;11.14;49.68;100598.03;4954091;28;20769;-61
2022/05/01 04:02:27;;;;;;;11.75;7.20;;;;;;;11.14;49.56;100603.31;4954271;28;20062;-60
2022/05/01 04:04:53;;;;;;;13.73;9.10;;;;;;;11.13;49.97;100602.44;4953929;28;20484;-61
2022/05/01 04:07:20;;;;;;;9.85;7.97;;;;;;;11.14;49.91;100605.94;4953956;28;20078;-60
2022/05/01 04:09:46;;;;;;;11.95;7.93;;;;;;;11.15;50.09;100610.28;4953945;28;20048;-61
2022/05/01 04:12:14;;;;;;;10.35;7.38;;;;;;;11.15;49.97;100605.00;4954210;28;20051;-59
2022/05/01 04:14:40;;;;;;;10.27;7.07;;;;;;;11.15;50.35;100610.28;4953805;28;20061;-57
2022/05/01 04:17:07;;;;;;;17.70;7.78;;;;;;;11.14;50.10;100608.56;4954084;28;20051;-59
2022/05/01 04:19:34;;;;;;;14.00;8.63;;;;;;;11.14;50.32;100600.69;4953755;28;20055;-60
2022/05/01 04:22:00;;;;;;;12.07;8.75;;;;;;;11.12;50.28;100602.50;4953729;28;20058;-55
2022/05/01 04:24:27;;;;;;;10.57;8.32;;;;;;;11.11;50.58;100606.06;4953835;28;20195;-58
2022/05/01 04:26:55;;;;;;;10.60;7.90;;;;;;;11.08;50.70;100607.94;4953918;28;20059;-59
2022/05/01 04:29:37;;;;;;;15.40;9.80;;;;;;;11.08;50.77;100612.34;4953609;28;20054;-54
2022/05/01 04:32:08;;;;;;;13.25;8.73;;;;;;;11.10;50.84;100614.91;4953875;28;20051;-58
2022/05/01 04:34:35;;;;;;;15.13;8.52;;;;;;;11.09;50.94;100614.03;4953718;28;20073;-58
2022/05/01 04:37:02;;;;;;;12.40;8.27;;;;;;;11.09;51.31;100619.31;4953654;28;20055;-59
2022/05/01 04:39:29;;;;;;;11.60;8.45;;;;;;;11.08;51.08;100613.22;4953399;28;20109;-58
2022/05/01 04:41:55;;;;;;;12.90;8.63;;;;;;;11.08;51.31;100615.84;4953572;28;20055;-58
2022/05/01 04:44:22;;;;;;;13.20;8.38;;;;;;;11.08;51.37;100618.47;4953410;28;20059;-59
2022/05/01 04:46:50;;;;;;;10.50;7.38;;;;;;;11.07;51.21;100614.09;4953347;28;20055;-61
2022/05/01 04:49:20;;;;;;;9.10;7.50;;;;;;;11.05;51.48;100613.34;4952749;28;20427;-61
2022/05/01 04:51:47;;;;;;;10.80;8.60;;;;;;;11.06;51.59;100614.16;4952149;29;20403;-60
2022/05/01 04:54:14;;;;;;;13.95;8.32;;;;;;;11.04;51.52;100614.28;4953174;28;20051;-61
2022/05/01 04:59:26;;;;;;;9.77;7.63;;;;;;;11.07;51.64;100618.53;4953065;28;20134;-59
2022/05/01 05:01:53;;;;;;;11.00;8.25;;;;;;;11.09;51.66;100624.59;4953115;28;20055;-61
2022/05/01 05:04:20;;;;;;;9.90;7.95;;;;;;;11.11;51.70;100622.75;4953048;28;20558;-59
2022/05/01 05:06:46;;;;;;;14.25;8.20;;;;;;;11.14;51.78;100624.38;4953081;28;20055;-57
2022/05/01 05:11:58;;;;;;;13.93;8.65;;;;;;;11.20;51.90;100626.72;4952791;28;20055;-57
2022/05/01 05:14:24;;;;;;;10.15;7.75;;;;;;;11.20;51.98;100619.69;4953105;28;20066;-59
2022/05/01 05:16:51;;;;;;;14.73;8.48;;;;;;;11.22;52.21;100624.91;4952904;28;20460;-61
2022/05/01 05:19:18;;;;;;;8.95;7.13;;;;;;;11.23;52.05;100621.31;4952802;28;20165;-56
2022/05/01 05:21:45;;;;;;;10.52;8.35;;;;;;;11.26;52.07;100622.97;4952610;28;20055;-58
2022/05/01 05:24:22;;;;;;;12.23;7.80;;;;;;;11.27;52.13;100624.66;4952643;29;20062;-61
2022/05/01 05:26:48;;;;;;;10.10;8.00;;;;;;;11.27;52.17;100630.81;4953001;28;20114;-61
2022/05/01 05:29:15;;;;;;;11.20;8.23;;;;;;;11.29;52.54;100633.38;4952785;28;20055;-59
2022/05/01 05:31:41;;;;;;;8.90;7.45;;;;;;;11.31;52.51;100629.75;4952551;28;20062;-62
2022/05/01 05:34:08;;;;;;;10.45;8.05;;;;;;;11.35;52.73;100633.09;4951491;29;20047;-58
2022/05/01 05:36:35;;;;;;;9.05;7.97;;;;;;;11.39;52.71;100631.16;4952753;28;20047;-59
2022/05/01 05:39:02;;;;;;;10.98;7.70;;;;;;;11.44;52.84;100629.19;4952669;28;20090;-61
2022/05/01 05:41:29;;;;;;;12.57;8.23;;;;;;;11.48;52.72;100628.09;4951407;29;20389;-56
2022/05/01 05:43:55;;;;;;;10.13;7.35;;;;;;;11.52;52.63;100626.16;4952843;28;20051;-57
2022/05/01 05:46:27;;;;;;;11.35;7.72;;;;;;;11.56;52.66;100633.00;4952630;28;20058;-61
2022/05/01 05:48:54;;;;;;;13.43;8.02;;;;;;;11.59;52.59;100632.88;4952413;28;20051;-60
2022/05/01 05:51:21;;;;;;;9.30;7.03;;;;;;;11.61;52.82;100628.38;4950778;29;20138;-60
2022/05/01 05:53:51;;;;;;;13.20;7.10;;;;;;;11.63;53.49;100638.84;4952774;28;20059;-62
2022/05/01 05:56:19;;;;;;;9.60;7.30;;;;;;;11.66;52.74;100631.63;4951259;29;20043;-60
2022/05/01 05:58:47;;;;;;;9.43;6.88;;;;;;;11.69;52.75;100631.50;4950851;29;20055;-60
2022/05/01 06:01:13;;;;;;;18.52;7.95;;;;;;;11.73;52.87;100632.19;4953913;28;20459;-62
2022/05/01 06:03:41;;;;;;;12.82;7.85;;;;;;;11.76;52.88;100637.34;4954878;29;20055;-61
2022/05/01 06:06:08;;;;;;;11.48;6.72;;;;;;;11.79;52.84;100637.19;4956150;28;20500;-61
2022/05/01 06:08:38;;;;;;;13.73;8.43;;;;;;;11.85;52.97;100634.25;4956320;28;20063;-62
2022/05/01 06:11:05;;;;;;;11.73;7.82;;;;;;;11.91;53.02;100645.44;4954282;29;20122;-61
2022/05/01 06:13:31;;;;;;;10.48;7.38;;;;;;;11.95;52.88;100639.94;4955980;28;20054;-60
2022/05/01 06:15:58;;;;;;;11.13;7.88;;;;;;;12.02;52.83;100637.00;4955589;28;20523;-59
2022/05/01 06:18:25;;;;;;;11.85;7.03;;;;;;;12.06;52.86;100644.72;4956104;28;20051;-60
2022/05/01 06:20:53;;;;;;;9.43;6.82;;;;;;;12.10;52.89;100635.72;4956207;28;20126;-61
2022/05/01 06:23:25;;;;;;;;;;;;;;;12.14;52.45;100643.50;4956688;28;20051;-60
2022/05/01 06:25:52;;;;;;;11.68;6.70;;;;;;;12.21;52.48;100637.84;4955914;29;19929;-61
2022/05/01 06:28:18;;;;;;;9.07;7.10;;;;;;;12.24;52.62;100645.63;4954768;29;20515;-61
2022/05/01 06:30:47;;;;;;;10.02;7.72;;;;;;;12.29;52.79;100639.25;4955779;28;20055;-62
2022/05/01 06:33:20;;;;;;;10.73;7.90;;;;;;;12.31;53.62;100637.38;4955708;28;20121;-62
2022/05/01 06:35:53;;;;;;;9.82;6.90;;;;;;;12.37;53.46;100637.91;4954719;29;20047;-58
2022/05/01 06:38:21;;;;;;;10.23;7.65;;;;;;;12.45;52.70;100634.88;4955695;28;20558;-61
2022/05/01 06:40:48;;;;;;;10.38;7.47;;;;;;;12.51;52.66;100641.66;4955502;28;20488;-57
2022/05/01 06:43:17;;;;;;;11.07;7.40;;;;;;;12.56;52.73;100634.34;4955589;28;20551;-61
2022/05/01 06:45:45;;;;;;;9.82;7.55;;;;;;;12.63;52.48;100637.50;4954356;29;20054;-60
2022/05/01 06:48:17;;;;;;;9.95;7.28;;;;;;;12.67;52.37;100636.41;4955781;28;20051;-60
2022/05/01 06:50:43;;;;;;;10.35;7.38;;;;;;;12.72;52.45;100637.06;4955529;28;20051;-58
2022/05/01 06:53:10;;;;;;;10.85;7.43;;;;;;;12.77;52.15;100639.44;4955671;28;20058;-61
2022/05/01 06:55:37;;;;;;;9.70;7.10;;;;;;;12.82;52.34;100644.50;4955639;28;20051;-61
2022/05/01 06:58:04;;;;;;;10.48;7.90;;;;;;;12.86;52.18;100633.69;4955397;28;20051;-61
2022/05/01 07:00:31;;;;;;;9.05;7.30;;;;;;;12.92;52.31;100637.78;4955562;28;20109;-61
2022/05/01 07:02:59;;;;;;;11.80;7.72;;;;;;;12.97;52.34;100645.50;4955305;28;20059;-61
2022/05/01 07:05:26;;;;;;;13.23;8.18;;;;;;;13.03;52.10;100642.50;4954513;29;20078;-61
2022/05/01 07:07:54;;;;;;;11.25;7.45;;;;;;;13.08;52.06;100642.28;4954437;29;20113;-60
2022/05/01 07:10:22;;;;;;;10.57;7.75;;;;;;;13.13;52.12;100646.34;4955445;28;20499;-61
2022/05/01 07:12:49;;;;;;;10.57;7.60;;;;;;;13.19;51.88;100645.19;4953454;28;20059;-60
2022/05/01 07:15:16;;;;;;;11.13;7.32;;;;;;;13.25;51.87;100642.22;4955240;28;20070;-61
2022/05/01 07:17:43;;;;;;;9.07;7.45;;;;;;;13.29;52.12;100651.69;4955286;28;20047;-61
2022/05/01 07:20:10;;;;;;;11.40;6.95;;;;;;;13.36;51.83;100657.50;4955076;28;20051;-60
2022/05/01 07:22:43;;;;;;;10.55;6.80;;;;;;;13.43;51.56;100652.72;4953882;29;20094;-59
2022/05/01 07:25:10;;;;;;;11.95;7.20;;;;;;;13.50;51.61;100655.94;4954995;28;20122;-59
2022/05/01 07:27:37;;;;;;;8.65;6.13;;;;;;;13.56;51.71;100660.88;4955300;28;20047;-62
2022/05/01 07:30:04;;;;;;;7.85;6.10;;;;;;;13.61;51.25;100656.16;4955020;28;20055;-61
2022/05/01 07:32:30;;;;;;;12.82;6.82;;;;;;;13.66;51.40;100653.28;4954821;28;20063;-61
2022/05/01 07:34:57;;;;;;;10.55;6.80;;;;;;;13.72;51.28;100646.81;4954498;28;20077;-60
2022/05/01 07:37:26;;;;;;;11.05;6.68;;;;;;;13.77;51.40;100650.91;4954560;28;20401;-59
2022/05/01 07:39:54;;;;;;;10.38;6.45;;;;;;;13.83;51.10;100654.13;4954361;28;20047;-63
2022/05/01 07:42:24;;;;;;;11.40;7.20;;;;;;;13.87;51.15;100647.72;4953790;29;20102;-60
2022/05/01 07:44:51;;;;;;;9.93;6.82;;;;;;;13.92;51.15;100648.31;4953513;29;20089;-62
2022/05/01 07:47:18;;;;;;;8.88;6.82;;;;;;;13.98;51.02;100649.75;4954794;28;20058;-61
2022/05/01 07:49:45;;;;;;;10.65;6.75;;;;;;;14.03;50.90;100653.88;4954251;28;20051;-61
2022/05/01 07:52:13;;;;;;;8.85;7.00;;;;;;;14.07;50.86;100654.53;4954357;28;20047;-63
2022/05/01 07:54:39;;;;;;;9.18;6.78;;;;;;;14.13;50.79;100655.97;4954643;28;20050;-61
2022/05/01 07:57:07;;;;;;;11.52;6.50;;;;;;;14.17;50.94;100663.63;4954194;28;20503;-60
2022/05/01 07:59:33;;;;;;;10.27;5.75;;;;;;;14.23;50.84;100662.44;4954198;28;20055;-61
2022/05/01 08:02:00;;;;;;;9.20;6.15;;;;;;;14.29;50.79;100661.22;4954349;28;20092;-60
2022/05/01 08:04:30;;;;;;;7.20;6.25;;;;;;;14.36;50.58;100657.28;4954106;28;20484;-62
2022/05/01 08:07:01;;;;;;;11.02;5.78;;;;;;;14.43;50.43;100657.78;4954082;28;20047;-60
2022/05/01 08:09:30;;;;;;;7.28;5.25;;;;;;;14.50;50.60;100653.81;4952939;29;20051;-60
2022/05/01 08:11:57;;;;;;;9.15;6.40;;;;;;;14.58;50.19;100656.03;4952980;29;20047;-60
2022/05/01 08:14:24;;;;;;;9.00;5.40;;;;;;;14.62;49.88;100660.19;4953152;29;20419;-60
2022/05/01 08:16:51;;;;;;;7.28;5.38;;;;;;;14.67;49.72;100658.13;4953912;28;20052;-60
2022/05/01 08:22:07;;;;;;;12.15;5.88;;;;;;;14.77;49.88;100661.06;4954180;28;20188;-60
2022/05/01 08:24:34;;;;;;;7.30;5.63;;;;;;;14.84;49.58;100661.59;4951997;28;20054;-58
2022/05/01 08:27:07;;;;;;;9.07;5.47;;;;;;;14.90;49.18;100655.03;4952654;29;20062;-60
2022/05/01 08:29:36;;;;;;;;;;;;;;;14.95;49.16;100666.25;4954077;28;20047;-61
2022/05/01 08:32:05;;;;;;;7.60;4.78;;;;;;;15.07;48.88;100669.94;4952557;29;20340;-63
2022/05/01 08:34:31;;;;;;;6.15;5.35;;;;;;;15.10;48.70;100667.94;4953930;28;20062;-61
2022/05/01 08:36:58;;;;;;;7.72;5.00;;;;;;;15.16;48.69;100666.72;4953521;28;20562;-61
2022/05/01 08:39:24;;;;;;;6.88;5.03;;;;;;;15.22;48.60;100668.13;4953411;28;20055;-60
2022/05/01 08:41:51;;;;;;;7.75;4.35;;;;;;;15.28;48.20;100669.56;4953526;28;20059;-62
2022/05/01 08:44:24;;;;;;;6.38;4.53;;;;;;;15.33;48.06;100672.78;4953441;28;20059;-61
2022/05/01 08:46:56;;;;;;;10.07;5.38;;;;;;;15.39;47.81;100674.19;4952164;29;20114;-61
2022/05/01 08:49:22;;;;;;;8.50;5.18;;;;;;;15.47;48.06;100663.91;4952167;29;20047;-60
2022/05/01 08:51:52;;;;;;;7.45;5.10;;;;;;;15.55;48.20;100666.13;4953402;28;20051;-60
2022/05/01 08:54:18;;;;;;;7.07;4.75;;;;;;;15.63;47.86;100669.97;4953318;28;20054;-60
2022/05/01 08:56:46;;;;;;;7.85;4.43;;;;;;;15.72;47.93;100660.56;4953204;28;20392;-59
2022/05/01 08:59:14;;;;;;;5.38;4.15;;;;;;;15.81;47.44;100658.28;4952774;28;20074;-62
2022/05/01 09:01:43;;;;;;;5.90;3.85;;;;;;;15.91;47.01;100662.03;4952204;29;20242;-60
2022/05/01 09:04:14;;;;;;;7.45;3.78;;;;;;;16.01;47.30;100663.16;4952071;29;20134;-61
2022/05/01 09:06:43;;;;;;;6.30;4.45;;;;;;;16.11;47.03;100666.06;4953119;28;20087;-60
2022/05/01 09:09:15;;;;;;;5.32;3.47;;;;;;;16.20;46.34;100656.66;4951593;29;20043;-61
2022/05/01 09:14:28;;;;;;;7.20;3.67;;;;;;;16.43;46.63;100659.56;4952878;28;20110;-62
2022/05/01 09:17:09;;;;;;;4.60;3.50;;;;;;;16.50;45.85;100652.88;4952952;28;20488;-60
2022/05/01 09:19:45;;;;;;;4.57;3.83;;;;;;;16.64;45.73;100659.91;4952612;28;20110;-60
2022/05/01 09:22:12;;;;;;;5.82;3.17;;;;;;;16.74;45.57;100654.81;4952981;28;20484;-60
2022/05/01 09:24:40;;;;;;;5.30;3.47;;;;;;;16.86;45.39;100654.94;4953119;28;20051;-61
2022/05/01 09:27:29;;;;;;;5.05;3.20;;;;;;;16.91;44.96;100660.78;4953069;28;20054;-60
2022/05/01 09:30:10;;;;;;;5.97;3.58;;;;;;;17.01;44.11;100664.50;4952477;28;20051;-60
2022/05/01 09:32:39;;;;;;;5.72;3.30;;;;;;;17.15;44.76;100654.72;4951796;29;20054;-60
2022/05/01 09:35:07;;;;;;;6.45;3.85;;;;;;;17.21;44.63;100651.63;4951268;28;20274;-60
2022/05/01 09:37:34;;;;;;;4.30;3.30;;;;;;;17.28;44.30;100655.56;4952716;28;20131;-61
2022/05/01 09:40:00;;;;;;;6.45;3.38;;;;;;;17.37;44.68;100650.53;4952365;28;20066;-60
2022/05/01 09:42:34;;;;;;;4.70;2.80;;;;;;;17.45;43.77;100649.03;4952529;28;20059;-62
2022/05/01 09:45:12;;;;;;;3.53;2.47;;;;;;;17.57;43.65;100651.78;4952861;28;20088;-61
2022/05/01 09:47:41;;;;;;;4.45;2.65;;;;;;;17.74;43.28;100644.34;4952661;28;20051;-61
2022/05/01 09:50:09;;;;;;;3.65;1.75;;;;;;;17.87;42.56;100645.16;4950998;29;20051;-60
2022/05/01 09:53:00;;;;;;;1.75;1.48;;;;;;;17.93;41.83;100641.19;4951377;29;20054;-61
2022/05/01 09:55:29;;;;;;;2.83;1.55;;;;;;;18.06;41.31;100644.63;4951018;29;20062;-63
2022/05/01 09:58:05;;;;;;;2.47;1.55;;;;;;;18.10;41.07;100643.47;4951169;29;20066;-61
2022/05/01 10:00:40;;;;;;;1.50;1.40;;;;;;;18.20;39.41;100645.44;4952161;28;20503;-60
2022/05/01 10:03:22;;;;;;;10.07;2.80;;;;;;;18.26;40.09;100636.16;4951315;29;20055;-60
2022/05/01 10:05:50;;;;;;;3.03;1.67;;;;;;;18.39;40.05;100628.91;4951440;29;20090;-60
2022/05/01 10:08:18;;;;;;;3.70;1.98;;;;;;;18.48;40.91;100630.91;4952066;28;20176;-60
2022/05/01 10:10:47;;;;;;;2.72;1.90;;;;;;;18.58;40.04;100625.69;4950861;29;20428;-60
2022/05/01 10:13:14;;;;;;;4.78;2.20;;;;;;;18.71;39.67;100630.94;4952125;29;20102;-61
2022/05/01 10:16:03;;;;;;;3.22;2.38;;;;;;;18.86;39.53;100628.88;4952120;28;20389;-61
2022/05/01 10:18:31;;;;;;;2.90;2.20;;;;;;;18.97;39.01;100617.38;4951160;29;20102;-60
2022/05/01 10:20:58;;;;;;;2.25;2.03;;;;;;;19.07;38.29;100624.69;4951896;28;20051;-60
2022/05/01 10:23:25;;;;;;;2.17;1.85;;;;;;;19.15;38.87;100624.91;4952390;28;20051;-60
2022/05/01 10:26:01;;;;;;;2.33;2.05;;;;;;;19.20;38.23;100614.72;4952165;28;20870;-62
2022/05/01 10:28:50;;;;;;;3.58;2.53;;;;;;;19.34;38.46;100615.44;4938579;29;20411;-61
2022/05/01 10:34:43;;;;;;;4.10;2.50;;;;;;;19.53;38.13;100614.78;4948580;28;20062;-60
2022/05/01 10:37:39;;;;;;;2.55;1.92;;;;;;;19.66;39.30;100618.16;4952281;28;20055;-62
2022/05/01 10:40:06;;;;;;;2.83;2.15;;;;;;;19.85;38.26;100613.97;4951849;28;20050;-60
2022/05/01 10:42:35;;;;;;;10.85;2.60;;;;;;;19.97;38.35;100605.91;4952059;28;20055;-61
2022/05/01 10:45:02;;;;;;;3.78;2.10;;;;;;;20.09;37.84;100614.75;4951996;28;20059;-60
2022/05/01 10:47:37;;;;;;;5.10;2.10;;;;;;;20.15;36.57;100615.06;4959165;28;20066;-62
2022/05/01 10:50:11;;;;;;;3.60;2.45;;;;;;;20.22;35.95;100614.56;4962487;28;20078;-61
2022/05/01 10:53:07;;;;;;;2.92;2.03;;;;;;;20.21;35.96;100612.84;4964289;28;20049;-60
2022/05/01 10:55:49;;;;;;;4.13;2.20;;;;;;;20.21;35.77;100607.50;4971965;28;20050;-60
2022/05/01 10:58:20;;;;;;;3.63;2.50;;;;;;;20.20;35.20;100609.34;4974449;28;20051;-60
2022/05/01 11:00:49;;;;;;;2.85;2.60;;;;;;;20.17;35.31;100610.47;4974502;28;20073;-61
2022/05/01 11:03:32;;;;;;;2.67;2.13;;;;;;;20.06;35.27;100605.16;4973434;28;20110;-60
2022/05/01 11:06:02;;;;;;;3.88;2.60;;;;;;;20.05;34.75;100606.16;4974472;28;20515;-60
2022/05/01 11:08:36;;;;;;;3.17;2.40;;;;;;;19.99;33.91;100598.63;4974814;28;20113;-60
2022/05/01 11:11:05;;;;;;;4.57;2.33;;;;;;;19.97;35.13;100601.41;4974362;28;20058;-61
2022/05/01 11:13:37;;;;;;;3.30;2.22;;;;;;;19.93;34.98;100595.47;4973340;28;20102;-60
2022/05/01 11:16:05;;;;;;;4.93;2.60;;;;;;;19.93;35.21;100595.47;4973054;28;20515;-61
2022/05/01 11:18:39;;;;;;;3.63;2.33;;;;;;;19.92;34.74;100598.25;4972926;28;20196;-60
2022/05/01 11:21:24;;;;;;;3.22;2.25;;;;;;;19.90;35.08;100600.22;4973423;28;20054;-60
2022/05/01 11:24:02;;;;;;;2.63;2.25;;;;;;;19.91;34.88;100597.44;4974547;28;20153;-62
2022/05/01 11:26:29;;;;;;;2.45;2.03;;;;;;;19.96;35.29;100596.19;4972794;28;20406;-60
2022/05/01 11:29:08;;;;;;;3.03;2.33;;;;;;;19.95;35.62;100597.19;4974384;28;20061;-61
2022/05/01 11:31:35;;;;;;;5.32;2.42;;;;;;;19.95;35.74;100591.84;4973930;28;20055;-60
2022/05/01 11:34:17;;;;;;;4.03;2.50;;;;;;;19.87;35.76;100587.97;4974138;28;20062;-60
2022/05/01 11:37:03;;;;;;;4.40;2.67;;;;;;;19.86;34.68;100586.28;4974027;28;20050;-62
2022/05/01 11:39:51;;;;;;;3.25;2.15;;;;;;;19.77;35.68;100584.34;4973791;28;20058;-61
2022/05/01 11:42:38;;;;;;;3.88;2.45;;;;;;;19.66;35.69;100580.75;4972674;28;20050;-60
2022/05/01 11:45:05;;;;;;;3.03;2.20;;;;;;;19.63;35.30;100581.00;4974022;28;20050;-60
2022/05/01 11:47:33;;;;;;;3.25;2.10;;;;;;;19.58;35.59;100571.69;4973826;28;20068;-59
2022/05/01 11:50:01;;;;;;;4.53;2.67;;;;;;;19.51;35.29;100576.69;4974330;28;20093;-61
2022/05/01 11:52:27;;;;;;;2.78;2.33;;;;;;;19.45;35.36;100579.84;4973620;28;20059;-60
2022/05/01 11:55:06;;;;;;;3.22;2.10;;;;;;;19.35;34.94;100574.41;4973968;28;20055;-60
2022/05/01 12:03:11;;;;;;;4.57;2.63;;;;;;;19.33;35.35;100563.03;4974107;28;20388;-60
2022/05/01 12:05:47;;;;;;;5.20;3.10;;;;;;;19.32;35.19;100564.84;4972497;28;20578;-61
2022/05/01 12:08:14;;;;;;;4.10;2.65;;;;;;;19.35;35.82;100564.59;4972453;28;20051;-60
2022/05/01 12:10:42;;;;;;;4.25;2.58;;;;;;;19.36;35.66;100560.09;4972090;28;20423;-61